createdAt,value
2023-05-22T00:01:08.354Z,78.47
2023-05-22T00:03:39.413Z,78.85
2023-05-22T00:06:20.976Z,79.57
2023-05-22T00:08:51.202Z,80.45
2023-05-22T00:11:21.398Z,79.68
2023-05-22T00:13:54.591Z,79.05
2023-05-22T00:16:28.908Z,79.86
2023-05-22T00:19:00.385Z,79.38
2023-05-22T00:21:29.865Z,80.29
2023-05-22T00:24:03.889Z,81.21
2023-05-22T00:26:41.082Z,81.16
2023-05-22T00:29:10.893Z,81.47
2023-05-22T00:31:43.332Z,81.68
2023-05-22T00:34:20.299Z,82.00
2023-05-22T00:36:49.278Z,82.30
2023-05-22T00:39:21.250Z,81.92
2023-05-22T00:41:50.411Z,80.76
2023-05-22T00:44:19.971Z,80.17
2023-05-22T00:46:55.040Z,80.70
2023-05-22T00:49:29.353Z,80.46
2023-05-22T00:52:01.138Z,81.00
2023-05-22T00:54:31.975Z,81.81
2023-05-22T00:57:01.747Z,82.14
2023-05-22T00:59:47.935Z,83.02
2023-05-22T01:02:21.022Z,82.71
2023-05-22T01:04:50.322Z,82.39
2023-05-22T01:07:19.901Z,82.39
2023-05-22T01:09:48.331Z,83.23
2023-05-22T01:12:22.075Z,83.69
2023-05-22T01:15:02.813Z,85.01
2023-05-22T01:17:38.204Z,84.44
2023-05-22T01:20:24.826Z,84.46
2023-05-22T01:23:59.648Z,84.92
2023-05-22T01:26:46.960Z,85.14
2023-05-22T01:29:46.838Z,85.36
2023-05-22T01:32:25.142Z,85.25
2023-05-22T01:34:59.353Z,84.52
2023-05-22T01:37:31.264Z,84.95
2023-05-22T01:40:01.779Z,83.96
2023-05-22T01:42:31.659Z,83.88
2023-05-22T01:45:02.371Z,84.27
2023-05-22T01:47:51.686Z,86.06
2023-05-22T01:50:21.194Z,84.75
2023-05-22T01:53:10.128Z,83.99
2023-05-22T01:55:45.605Z,85.24
2023-05-22T01:58:25.296Z,84.86
2023-05-22T02:00:58.844Z,85.29
2023-05-22T02:03:33.604Z,86.25
2023-05-22T02:06:06.511Z,86.42
2023-05-22T02:08:35.371Z,87.77
2023-05-22T02:11:06.730Z,86.83
2023-05-22T02:13:38.539Z,86.64
2023-05-22T02:16:16.297Z,87.83
2023-05-22T02:19:03.786Z,88.20
2023-05-22T02:21:34.650Z,88.56
2023-05-22T02:24:07.413Z,86.53
2023-05-22T02:26:42.260Z,86.53
2023-05-22T02:29:13.385Z,85.82
2023-05-22T02:31:47.700Z,86.40
2023-05-22T02:34:31.707Z,86.53
2023-05-22T02:37:03.725Z,87.19
2023-05-22T02:39:36.445Z,86.18
2023-05-22T02:42:08.116Z,87.20
2023-05-22T02:44:37.559Z,87.18
2023-05-22T02:47:10.140Z,87.44
2023-05-22T02:49:40.824Z,87.94
2023-05-22T02:52:09.597Z,89.15
2023-05-22T02:54:39.145Z,88.21
2023-05-22T02:57:11.435Z,89.63
2023-05-22T02:59:42.634Z,89.61
2023-05-22T03:02:19.534Z,89.52
2023-05-22T03:04:54.379Z,89.06
2023-05-22T03:07:24.618Z,89.46
2023-05-22T03:09:56.273Z,88.64
2023-05-22T03:12:26.264Z,90.17
2023-05-22T03:14:56.489Z,88.77
2023-05-22T03:17:26.058Z,88.59
2023-05-22T03:19:58.303Z,89.40
2023-05-22T03:22:30.234Z,89.57
2023-05-22T03:25:00.888Z,90.22
2023-05-22T03:27:31.516Z,90.64
2023-05-22T03:30:02.581Z,89.88
2023-05-22T03:32:37.155Z,88.91
2023-05-22T03:35:15.388Z,89.88
2023-05-22T03:37:44.926Z,90.73
2023-05-22T03:40:18.368Z,91.55
2023-05-22T03:42:50.066Z,91.91
2023-05-22T03:45:27.742Z,91.79
2023-05-22T03:48:01.493Z,92.55
2023-05-22T03:50:35.661Z,91.29
2023-05-22T03:53:05.956Z,92.24
2023-05-22T03:55:36.638Z,92.38
2023-05-22T03:58:14.700Z,92.21
2023-05-22T04:00:52.349Z,92.94
2023-05-22T04:03:28.791Z,92.88
2023-05-22T04:06:03.985Z,92.20
2023-05-22T04:08:34.826Z,91.67
2023-05-22T04:11:05.510Z,90.17
2023-05-22T04:13:34.443Z,90.73
2023-05-22T04:16:08.491Z,90.24
2023-05-22T04:18:45.387Z,89.19
2023-05-22T04:21:19.138Z,89.27
2023-05-22T04:23:51.191Z,90.38
2023-05-22T04:26:22.643Z,90.22
2023-05-22T04:28:52.446Z,89.56
2023-05-22T04:31:24.214Z,88.69
2023-05-22T04:34:04.851Z,89.95
2023-05-22T04:36:38.952Z,89.45
2023-05-22T04:39:08.163Z,88.90
2023-05-22T04:41:39.139Z,89.73
2023-05-22T04:44:09.846Z,87.99
2023-05-22T04:46:41.170Z,87.72
2023-05-22T04:49:19.917Z,82.10
2023-05-22T04:51:57.001Z,85.68
2023-05-22T04:54:26.520Z,86.80
2023-05-22T04:56:58.901Z,86.11
2023-05-22T04:59:29.165Z,85.64
2023-05-22T05:01:58.079Z,85.41
2023-05-22T05:04:34.856Z,84.74
2023-05-22T05:07:06.592Z,85.45
2023-05-22T05:09:38.029Z,86.33
2023-05-22T05:12:08.116Z,84.27
2023-05-22T05:14:41.604Z,85.25
2023-05-22T05:17:19.316Z,84.83
2023-05-22T05:19:59.919Z,84.56
2023-05-22T05:22:42.764Z,84.17
2023-05-22T05:25:20.535Z,85.46
2023-05-22T05:27:59.209Z,85.09
2023-05-22T05:30:38.660Z,83.67
2023-05-22T05:33:17.482Z,82.69
2023-05-22T05:36:28.662Z,82.99
2023-05-22T05:39:01.380Z,82.72
2023-05-22T05:41:38.415Z,82.23
2023-05-22T05:44:13.759Z,81.52
2023-05-22T05:46:48.286Z,81.09
2023-05-22T05:49:24.960Z,79.69
2023-05-22T05:52:05.513Z,80.84
2023-05-22T05:54:39.782Z,79.92
2023-05-22T05:57:19.322Z,79.36
2023-05-22T05:59:50.550Z,80.10
2023-05-22T06:02:44.161Z,79.12
2023-05-22T06:05:48.106Z,78.78
2023-05-22T06:08:44.232Z,78.57
2023-05-22T06:11:23.757Z,77.78
2023-05-22T06:13:59.771Z,78.23
2023-05-22T06:16:30.130Z,77.91
2023-05-22T06:19:10.774Z,78.23
2023-05-22T06:21:45.244Z,77.18
2023-05-22T06:24:18.735Z,75.95
2023-05-22T06:26:53.302Z,74.80
2023-05-22T06:29:22.964Z,74.62
2023-05-22T06:31:55.769Z,73.39
2023-05-22T06:34:28.098Z,73.24
2023-05-22T06:37:06.688Z,72.01
2023-05-22T06:39:46.123Z,71.90
2023-05-22T06:42:34.142Z,70.61
2023-05-22T06:45:23.859Z,69.83
2023-05-22T06:48:12.124Z,69.39
2023-05-22T06:51:02.130Z,69.39
2023-05-22T06:53:46.929Z,69.43
2023-05-22T06:56:19.897Z,68.99
2023-05-22T06:59:06.569Z,69.63
2023-05-22T07:01:57.082Z,69.48
2023-05-22T07:04:53.735Z,69.56
2023-05-22T07:07:54.742Z,69.77
2023-05-22T07:10:27.829Z,69.05
2023-05-22T07:13:06.919Z,68.95
2023-05-22T07:15:41.145Z,68.73
2023-05-22T07:18:10.377Z,68.67
2023-05-22T07:20:45.608Z,68.32
2023-05-22T07:23:20.144Z,68.37
2023-05-22T07:25:58.735Z,67.65
2023-05-22T07:28:36.767Z,66.74
2023-05-22T07:31:19.152Z,66.15
2023-05-22T07:33:52.228Z,66.02
2023-05-22T07:36:23.905Z,65.75
2023-05-22T07:38:55.523Z,65.46
2023-05-22T07:41:39.678Z,65.94
2023-05-22T07:44:19.153Z,66.08
2023-05-22T07:46:58.700Z,65.68
2023-05-22T07:49:34.814Z,65.90
2023-05-22T07:52:12.369Z,65.75
2023-05-22T07:54:46.799Z,65.84
2023-05-22T07:57:16.978Z,64.88
2023-05-22T07:59:55.938Z,62.12
2023-05-22T08:02:28.801Z,61.44
2023-05-22T08:04:57.462Z,59.91
2023-05-22T08:07:28.619Z,59.86
2023-05-22T08:10:00.395Z,60.41
2023-05-22T08:12:37.393Z,60.46
2023-05-22T08:15:11.006Z,60.13
2023-05-22T08:17:45.556Z,60.15
2023-05-22T08:20:15.578Z,60.49
2023-05-22T08:25:34.690Z,59.00
2023-05-22T08:28:12.217Z,59.20
2023-05-22T08:30:44.611Z,58.80
2023-05-22T08:33:19.119Z,58.27
2023-05-22T08:35:51.576Z,58.48
2023-05-22T08:38:24.877Z,59.37
2023-05-22T08:41:03.138Z,59.76
2023-05-22T08:43:31.946Z,58.99
2023-05-22T08:46:06.896Z,58.85
2023-05-22T08:48:39.307Z,57.78
2023-05-22T08:51:25.992Z,57.33
2023-05-22T08:53:58.493Z,57.08
2023-05-22T08:56:29.741Z,56.63
2023-05-22T08:59:09.306Z,56.03
2023-05-22T09:01:40.311Z,55.71
2023-05-22T09:04:18.529Z,55.61
2023-05-22T09:06:50.654Z,55.56
2023-05-22T09:09:21.602Z,54.36
2023-05-22T09:11:51.905Z,54.04
2023-05-22T09:14:20.239Z,53.86
2023-05-22T09:16:53.215Z,53.54
2023-05-22T09:19:32.483Z,53.65
2023-05-22T09:22:11.846Z,54.31
2023-05-22T09:24:45.603Z,54.94
2023-05-22T09:27:22.904Z,55.01
2023-05-22T09:29:54.088Z,54.62
2023-05-22T09:32:24.894Z,54.61
2023-05-22T09:35:04.803Z,53.88
2023-05-22T09:37:51.915Z,53.54
2023-05-22T09:40:20.234Z,53.56
2023-05-22T09:42:55.551Z,53.38
2023-05-22T09:45:35.185Z,53.05
2023-05-22T09:48:11.332Z,52.93
2023-05-22T09:50:43.222Z,53.13
2023-05-22T09:53:22.818Z,54.05
2023-05-22T09:56:00.708Z,53.84
2023-05-22T09:58:44.681Z,53.34
2023-05-22T10:01:17.802Z,52.57
2023-05-22T10:03:55.821Z,52.62
2023-05-22T10:06:34.065Z,52.70
2023-05-22T10:09:05.428Z,52.95
2023-05-22T10:11:40.443Z,51.84
2023-05-22T10:14:14.636Z,51.64
2023-05-22T10:16:55.486Z,51.31
2023-05-22T10:19:27.906Z,50.35
2023-05-22T10:22:01.974Z,49.44
2023-05-22T10:24:33.237Z,49.18
2023-05-22T10:27:07.224Z,48.86
2023-05-22T10:29:45.056Z,48.69
2023-05-22T10:32:31.374Z,49.03
2023-05-22T10:35:15.510Z,49.00
2023-05-22T10:37:59.756Z,47.89
2023-05-22T10:40:42.501Z,47.50
2023-05-22T10:43:12.776Z,47.12
2023-05-22T10:45:45.410Z,46.81
2023-05-22T10:48:28.895Z,46.75
2023-05-22T10:51:00.001Z,45.99
2023-05-22T10:53:42.023Z,45.56
2023-05-22T10:56:19.948Z,45.80
2023-05-22T10:59:05.758Z,45.54
2023-05-22T11:01:46.032Z,44.91
2023-05-22T11:04:29.487Z,44.41
2023-05-22T11:07:05.449Z,43.25
2023-05-22T11:09:48.343Z,43.04
2023-05-22T11:12:35.529Z,41.43
2023-05-22T11:15:09.684Z,41.91
2023-05-22T11:17:51.274Z,42.07
2023-05-22T11:20:25.552Z,41.76
2023-05-22T11:22:59.811Z,40.88
2023-05-22T11:25:31.059Z,41.06
2023-05-22T11:28:07.514Z,41.19
2023-05-22T11:30:39.402Z,41.23
2023-05-22T11:33:09.940Z,40.50
2023-05-22T11:35:43.501Z,40.03
2023-05-22T11:38:13.027Z,39.26
2023-05-22T11:40:45.219Z,39.46
2023-05-22T11:43:18.745Z,39.58
2023-05-22T11:45:50.320Z,40.36
2023-05-22T11:48:28.670Z,39.99
2023-05-22T11:51:02.843Z,39.60
2023-05-22T11:53:36.355Z,38.31
2023-05-22T11:56:09.500Z,38.24
2023-05-22T11:58:52.368Z,38.31
2023-05-22T12:01:26.518Z,37.61
2023-05-22T12:03:56.335Z,37.23
2023-05-22T12:06:33.346Z,37.07
2023-05-22T12:09:02.850Z,36.94
2023-05-22T12:11:38.165Z,36.00
2023-05-22T12:14:17.838Z,35.57
2023-05-22T12:16:55.173Z,35.68
2023-05-22T12:19:26.012Z,35.67
2023-05-22T12:21:58.887Z,35.70
2023-05-22T12:24:27.153Z,35.26
2023-05-22T12:27:08.473Z,35.69
2023-05-22T12:29:45.370Z,34.43
2023-05-22T12:32:20.389Z,33.87
2023-05-22T12:34:58.234Z,32.58
2023-05-22T12:37:41.033Z,32.14
2023-05-22T12:40:18.611Z,31.75
2023-05-22T12:42:52.969Z,31.58
2023-05-22T12:45:33.341Z,31.46
2023-05-22T12:48:03.406Z,30.72
2023-05-22T12:50:34.401Z,30.90
2023-05-22T12:53:11.367Z,30.86
2023-05-22T12:55:41.394Z,31.24
2023-05-22T12:58:19.693Z,30.95
2023-05-22T13:00:53.855Z,30.74
2023-05-22T13:03:24.757Z,29.88
2023-05-22T13:05:55.616Z,30.11
2023-05-22T13:08:33.018Z,28.84
2023-05-22T13:11:03.978Z,28.86
2023-05-22T13:13:33.620Z,29.57
2023-05-22T13:16:19.667Z,28.99
2023-05-22T13:19:00.701Z,28.94
2023-05-22T13:21:31.568Z,29.20
2023-05-22T13:24:06.881Z,29.48
2023-05-22T13:26:42.625Z,29.10
2023-05-22T13:29:15.777Z,29.03
2023-05-22T13:31:49.216Z,28.42
2023-05-22T13:34:25.139Z,29.86
2023-05-22T13:37:02.451Z,30.92
2023-05-22T13:39:42.488Z,32.11
2023-05-22T13:42:13.509Z,33.02
2023-05-22T13:44:45.160Z,33.00
2023-05-22T13:47:17.483Z,31.21
2023-05-22T13:49:55.487Z,30.45
2023-05-22T13:52:25.967Z,29.80
2023-05-22T13:54:56.241Z,30.01
2023-05-22T13:57:30.072Z,30.00
2023-05-22T13:59:59.322Z,29.25
2023-05-22T14:02:38.005Z,28.86
2023-05-22T14:05:06.804Z,28.27
2023-05-22T14:07:37.410Z,28.72
2023-05-22T14:10:06.682Z,27.98
2023-05-22T14:12:38.305Z,27.88
2023-05-22T14:15:08.758Z,27.88
2023-05-22T14:17:40.741Z,27.71
2023-05-22T14:20:19.630Z,27.71
2023-05-22T14:22:57.749Z,29.38
2023-05-22T14:25:32.834Z,30.60
2023-05-22T14:28:10.267Z,31.29
2023-05-22T14:30:39.804Z,29.86
2023-05-22T14:33:18.071Z,30.68
2023-05-22T14:36:03.779Z,31.48
2023-05-22T14:38:44.407Z,32.42
2023-05-22T14:41:12.429Z,31.86
2023-05-22T14:43:41.725Z,30.89
2023-05-22T14:46:19.590Z,30.27
2023-05-22T14:48:53.365Z,29.73
2023-05-22T14:51:35.990Z,29.33
2023-05-22T14:54:15.748Z,31.09
2023-05-22T14:56:50.304Z,33.09
2023-05-22T14:59:24.372Z,34.06
2023-05-22T15:01:55.811Z,34.66
2023-05-22T15:04:33.376Z,35.13
2023-05-22T15:07:07.227Z,35.76
2023-05-22T15:09:38.875Z,36.02
2023-05-22T15:12:08.041Z,36.31
2023-05-22T15:14:50.272Z,37.09
2023-05-22T15:17:22.295Z,37.78
2023-05-22T15:19:51.995Z,38.04
2023-05-22T15:22:22.705Z,36.63
2023-05-22T15:25:08.009Z,35.68
2023-05-22T15:27:40.736Z,34.79
2023-05-22T15:30:22.177Z,33.75
2023-05-22T15:32:55.718Z,33.01
2023-05-22T15:35:39.888Z,31.94
2023-05-22T15:38:18.912Z,31.58
2023-05-22T15:40:50.467Z,30.82
2023-05-22T15:43:20.332Z,31.04
2023-05-22T15:45:52.364Z,30.50
2023-05-22T15:48:21.239Z,30.47
2023-05-22T15:50:53.450Z,30.43
2023-05-22T15:53:23.928Z,29.67
2023-05-22T15:55:52.422Z,29.32
2023-05-22T15:58:40.008Z,29.52
2023-05-22T16:01:12.413Z,29.66
2023-05-22T16:03:46.354Z,29.62
2023-05-22T16:06:24.470Z,29.17
2023-05-22T16:08:53.732Z,29.28
2023-05-22T16:11:31.347Z,29.41
2023-05-22T16:14:05.607Z,29.44
2023-05-22T16:16:39.557Z,28.63
2023-05-22T16:19:11.941Z,28.96
2023-05-22T16:21:52.331Z,28.36
2023-05-22T16:24:21.018Z,28.82
2023-05-22T16:29:40.178Z,28.13
2023-05-22T16:32:10.940Z,29.02
2023-05-22T16:34:48.114Z,29.31
2023-05-22T16:37:22.291Z,30.29
2023-05-22T16:39:52.481Z,30.89
2023-05-22T16:42:23.915Z,30.95
2023-05-22T16:45:00.826Z,30.52
2023-05-22T16:47:33.391Z,30.84
2023-05-22T16:50:06.321Z,31.16
2023-05-22T16:52:38.790Z,31.40
2023-05-22T16:55:09.536Z,31.20
2023-05-22T16:57:42.227Z,30.96
2023-05-22T17:00:14.957Z,31.23
2023-05-22T17:02:47.315Z,30.85
2023-05-22T17:05:17.316Z,30.99
2023-05-22T17:07:55.339Z,31.01
2023-05-22T17:10:30.295Z,31.67
2023-05-22T17:13:03.168Z,31.44
2023-05-22T17:15:47.246Z,31.47
2023-05-22T17:18:25.851Z,31.45
2023-05-22T17:20:58.592Z,31.73
2023-05-22T17:23:33.540Z,32.46
2023-05-22T17:26:07.774Z,33.45
2023-05-22T17:28:38.659Z,33.71
2023-05-22T17:31:13.705Z,34.36
2023-05-22T17:33:50.448Z,35.30
2023-05-22T17:36:21.476Z,35.79
2023-05-22T17:39:01.737Z,36.23
2023-05-22T17:41:39.605Z,37.12
2023-05-22T17:44:12.596Z,38.17
2023-05-22T17:46:57.380Z,38.66
2023-05-22T17:49:28.731Z,39.75
2023-05-22T17:52:06.325Z,40.18
2023-05-22T17:54:42.464Z,41.36
2023-05-22T17:57:16.461Z,41.91
2023-05-22T17:59:54.334Z,41.95
2023-05-22T18:02:24.182Z,42.96
2023-05-22T18:04:58.868Z,43.20
2023-05-22T18:07:28.817Z,44.38
2023-05-22T18:10:06.944Z,44.30
2023-05-22T18:12:46.521Z,44.73
2023-05-22T18:15:30.644Z,44.94
2023-05-22T18:18:05.144Z,45.49
2023-05-22T18:20:40.616Z,45.97
2023-05-22T18:23:15.311Z,46.21
2023-05-22T18:25:56.762Z,46.87
2023-05-22T18:28:34.629Z,47.31
2023-05-22T18:31:19.273Z,47.57
2023-05-22T18:33:52.083Z,48.16
2023-05-22T18:36:22.783Z,48.76
2023-05-22T18:39:04.912Z,49.12
2023-05-22T18:41:45.268Z,49.06
2023-05-22T18:44:25.240Z,49.98
2023-05-22T18:46:57.804Z,49.68
2023-05-22T18:49:27.320Z,49.96
2023-05-22T18:52:13.873Z,50.69
2023-05-22T18:54:45.869Z,51.18
2023-05-22T18:57:30.927Z,51.59
2023-05-22T19:00:21.872Z,52.15
2023-05-22T19:03:04.386Z,52.55
2023-05-22T19:05:33.908Z,52.42
2023-05-22T19:08:05.130Z,52.69
2023-05-22T19:10:36.582Z,53.16
2023-05-22T19:13:11.975Z,53.38
2023-05-22T19:15:44.009Z,53.76
2023-05-22T19:18:14.765Z,54.42
2023-05-22T19:20:49.658Z,54.60
2023-05-22T19:23:22.516Z,55.16
2023-05-22T19:25:58.704Z,55.07
2023-05-22T19:28:33.960Z,55.01
2023-05-22T19:31:10.167Z,55.74
2023-05-22T19:33:50.238Z,56.25
2023-05-22T19:36:23.785Z,56.48
2023-05-22T19:38:55.764Z,56.70
2023-05-22T19:41:29.902Z,57.15
2023-05-22T19:44:08.708Z,57.13
2023-05-22T19:46:39.581Z,58.27
2023-05-22T19:49:10.512Z,58.09
2023-05-22T19:51:42.723Z,58.61
2023-05-22T19:54:13.678Z,58.85
2023-05-22T19:56:45.374Z,59.60
2023-05-22T19:59:20.930Z,59.44
2023-05-22T20:01:53.408Z,58.85
2023-05-22T20:04:31.097Z,59.60
2023-05-22T20:07:05.337Z,60.13
2023-05-22T20:09:40.763Z,60.54
2023-05-22T20:12:16.903Z,60.21
2023-05-22T20:14:59.057Z,60.38
2023-05-22T20:17:31.554Z,59.62
2023-05-22T20:20:10.959Z,59.52
2023-05-22T20:22:42.841Z,59.55
2023-05-22T20:25:20.336Z,59.48
2023-05-22T20:27:51.053Z,59.53
2023-05-22T20:30:34.222Z,59.38
2023-05-22T20:33:04.714Z,59.68
2023-05-22T20:35:41.350Z,59.32
2023-05-22T20:38:15.594Z,59.22
2023-05-22T20:40:47.001Z,59.23
2023-05-22T20:43:19.000Z,58.68
2023-05-22T20:46:01.367Z,58.90
2023-05-22T20:48:31.585Z,59.41
2023-05-22T20:51:01.042Z,59.45
2023-05-22T20:53:38.226Z,60.11
2023-05-22T20:56:12.207Z,59.75
2023-05-22T20:58:48.802Z,60.26
2023-05-22T21:01:20.796Z,60.08
2023-05-22T21:04:01.101Z,61.09
2023-05-22T21:06:33.323Z,61.29
2023-05-22T21:09:04.370Z,61.87
2023-05-22T21:11:38.745Z,62.29
2023-05-22T21:14:11.467Z,61.53
2023-05-22T21:16:50.925Z,61.67
2023-05-22T21:19:28.283Z,62.27
2023-05-22T21:21:59.551Z,62.77
2023-05-22T21:24:35.937Z,62.42
2023-05-22T21:27:05.118Z,62.89
2023-05-22T21:29:35.670Z,62.37
2023-05-22T21:32:13.132Z,62.49
2023-05-22T21:34:44.954Z,63.10
2023-05-22T21:37:19.494Z,63.91
2023-05-22T21:39:51.490Z,64.18
2023-05-22T21:42:34.776Z,63.49
2023-05-22T21:45:15.313Z,62.99
2023-05-22T21:47:57.820Z,63.46
2023-05-22T21:50:27.649Z,63.52
2023-05-22T21:53:04.150Z,64.46
2023-05-22T21:55:36.050Z,63.99
2023-05-22T21:58:13.742Z,64.92
2023-05-22T22:00:46.995Z,65.54
2023-05-22T22:03:23.603Z,64.63
2023-05-22T22:06:03.089Z,64.62
2023-05-22T22:08:31.917Z,64.95
2023-05-22T22:11:00.984Z,65.02
2023-05-22T22:13:28.977Z,65.07
2023-05-22T22:15:59.838Z,65.27
2023-05-22T22:18:33.555Z,64.97
2023-05-22T22:21:05.397Z,65.35
2023-05-22T22:23:36.967Z,65.69
2023-05-22T22:26:17.581Z,65.34
2023-05-22T22:28:47.020Z,64.93
2023-05-22T22:31:17.423Z,65.04
2023-05-22T22:33:59.618Z,65.86
2023-05-22T22:36:31.717Z,66.34
2023-05-22T22:39:02.489Z,66.56
2023-05-22T22:41:34.324Z,66.48
2023-05-22T22:44:05.297Z,65.93
2023-05-22T22:46:36.990Z,66.41
2023-05-22T22:49:09.224Z,66.98
2023-05-22T22:51:39.756Z,67.70
2023-05-22T22:54:13.514Z,67.82
2023-05-22T22:56:52.438Z,68.68
2023-05-22T22:59:24.484Z,68.35
2023-05-22T23:01:56.247Z,68.64
2023-05-22T23:04:28.356Z,68.41
2023-05-22T23:07:05.377Z,68.82
2023-05-22T23:09:41.146Z,68.70
2023-05-22T23:12:14.244Z,68.09
2023-05-22T23:14:48.070Z,69.24
2023-05-22T23:17:19.713Z,69.37
2023-05-22T23:19:49.931Z,69.61
2023-05-22T23:22:20.780Z,70.33
2023-05-22T23:24:54.246Z,70.72
2023-05-22T23:27:31.960Z,71.04
2023-05-22T23:30:05.004Z,71.11
2023-05-22T23:32:41.889Z,71.34
2023-05-22T23:35:14.279Z,71.53
2023-05-22T23:37:43.293Z,72.27
2023-05-22T23:40:13.609Z,72.47
2023-05-22T23:42:45.064Z,71.99
2023-05-22T23:45:19.032Z,71.87
2023-05-22T23:47:49.562Z,72.44
2023-05-22T23:50:24.265Z,71.34
2023-05-22T23:52:53.432Z,72.61
2023-05-22T23:55:24.002Z,73.51
2023-05-22T23:57:54.257Z,73.32
